Time;durP1;ratioP1;P1;durP2;ratioP2;P2;SDS_P1;SDS_P2;PMS_P1;PMS_P2;Temp;Humidity;BMP_temperature;BMP_pressure;BME280_temperature;BME280_humidity;BME280_pressure;Samples;Min_cycle;Max_cycle;Signal;HPM_P1;HPM_P2
2022/07/23 00:02:14;;;;;;;1999.90;999.90;;;;;;;19.73;86.22;99262.28;8056325;29;20045;-77
2022/07/23 00:06:16;;;;;;;1999.90;999.90;;;;;;;19.54;85.53;99275.41;8078675;29;20045;-78
2022/07/23 00:10:18;;;;;;;;;;;;;;;19.35;86.32;99292.03;8087531;29;20053;-77
2022/07/23 00:14:21;;;;;;;1999.90;999.90;;;;;;;19.25;87.08;99300.31;8059800;29;20018;-77
2022/07/23 00:18:24;;;;;;;1999.90;999.90;;;;;;;19.35;88.30;99306.03;8073933;29;20089;-77
2022/07/23 00:22:28;;;;;;;1999.90;999.90;;;;;;;19.33;87.52;99360.53;8059318;29;20127;-78
2022/07/23 00:26:33;;;;;;;1999.90;999.90;;;;;;;19.31;87.05;99388.72;8052737;29;20158;-77
2022/07/23 00:30:35;;;;;;;1999.90;999.90;;;;;;;19.34;86.21;99393.84;8040477;29;20059;-77
2022/07/23 00:34:37;;;;;;;1999.90;999.90;;;;;;;19.43;85.54;99397.91;8058938;29;20061;-78
2022/07/23 00:38:39;;;;;;;;;;;;;;;19.51;85.54;99367.69;8055147;29;20050;-78
2022/07/23 00:42:41;;;;;;;1999.90;999.90;;;;;;;19.60;85.75;99358.59;8068239;29;19950;-78
2022/07/23 00:47:00;;;;;;;1999.90;999.90;;;;;;;19.70;86.33;99323.03;8061444;29;20140;-78
2022/07/23 00:51:02;;;;;;;1999.90;999.90;;;;;;;19.79;85.85;99305.97;8071132;29;20156;-78
2022/07/23 00:55:05;;;;;;;1999.90;999.90;;;;;;;19.61;85.99;99290.03;8063033;29;20390;-77
2022/07/23 00:59:07;;;;;;;1999.90;999.90;;;;;;;19.50;86.71;99263.25;8067166;29;20763;-77
2022/07/23 01:03:09;;;;;;;1999.90;999.90;;;;;;;19.59;86.31;99255.03;8072395;29;20061;-77
2022/07/23 01:07:10;;;;;;;1999.90;999.90;;;;;;;19.66;85.74;99231.03;8062360;29;20533;-77
2022/07/23 01:11:13;;;;;;;1999.90;999.90;;;;;;;19.64;86.45;99240.78;8066844;29;20045;-77
2022/07/23 01:15:14;;;;;;;1999.90;999.90;;;;;;;19.54;86.71;99243.81;8085347;29;20133;-77
2022/07/23 01:19:17;;;;;;;1999.90;999.90;;;;;;;19.43;87.44;99261.81;8085056;29;20495;-78
2022/07/23 01:23:19;;;;;;;1999.90;999.90;;;;;;;19.22;87.74;99246.94;8063759;29;20077;-77
2022/07/23 01:27:22;;;;;;;1999.90;999.90;;;;;;;19.12;88.51;99253.50;8088506;29;20587;-77
2022/07/23 01:31:28;;;;;;;1999.90;999.90;;;;;;;19.06;88.86;99270.41;8064558;29;20069;-77
2022/07/23 01:35:38;;;;;;;1999.90;999.90;;;;;;;18.92;89.87;99285.88;8077346;29;20147;-77
2022/07/23 01:39:41;;;;;;;1999.90;999.90;;;;;;;18.91;90.70;99311.34;8086676;29;20579;-77
2022/07/23 01:43:44;;;;;;;1999.90;999.90;;;;;;;18.95;91.61;99312.06;8064179;29;20065;-78
2022/07/23 01:47:49;;;;;;;1999.90;999.90;;;;;;;19.09;91.33;99312.38;8065101;29;20057;-78
2022/07/23 01:51:59;;;;;;;1999.90;999.90;;;;;;;19.16;90.07;99303.31;8061218;29;20056;-78
2022/07/23 01:56:03;;;;;;;1999.90;999.90;;;;;;;19.22;89.27;99300.44;8082651;29;20077;-78
2022/07/23 02:00:13;;;;;;;1999.90;999.90;;;;;;;19.22;89.48;99310.97;8063719;29;20523;-77
2022/07/23 02:04:18;;;;;;;1999.90;999.90;;;;;;;19.23;88.74;99293.41;8091816;29;20052;-78
2022/07/23 02:08:27;;;;;;;1999.90;999.90;;;;;;;19.32;88.39;99257.00;8067928;29;20213;-77
2022/07/23 02:12:32;;;;;;;1999.90;999.90;;;;;;;19.36;88.79;99255.09;8092349;29;20053;-77
2022/07/23 02:16:35;;;;;;;1999.90;999.90;;;;;;;19.41;88.19;99254.91;8067256;29;20068;-78
2022/07/23 02:20:42;;;;;;;1999.90;999.90;;;;;;;19.20;88.76;99259.28;8056836;29;20061;-77
2022/07/23 02:24:45;;;;;;;1999.90;999.90;;;;;;;19.09;89.59;99265.00;8077452;29;20140;-78
2022/07/23 02:28:48;;;;;;;1999.90;999.90;;;;;;;18.98;90.42;99265.44;8074164;29;20057;-78
2022/07/23 02:32:50;;;;;;;1999.90;999.90;;;;;;;18.86;91.47;99271.22;8059538;29;20428;-77
2022/07/23 02:36:55;;;;;;;1999.90;999.90;;;;;;;18.99;91.70;99259.25;8071366;29;20328;-77
2022/07/23 02:40:59;;;;;;;1999.90;999.90;;;;;;;19.11;91.86;99264.94;8081310;29;20049;-78
2022/07/23 02:45:01;;;;;;;1999.90;999.90;;;;;;;18.94;91.50;99284.06;8086986;29;20053;-78
2022/07/23 02:49:04;;;;;;;1999.90;999.90;;;;;;;18.96;92.02;99290.09;8091750;29;20177;-78
2022/07/23 02:53:07;;;;;;;1999.90;999.90;;;;;;;19.06;92.00;99278.31;8068819;29;20444;-77
2022/07/23 02:57:08;;;;;;;1999.90;999.90;;;;;;;19.18;91.48;99254.09;8069081;29;20056;-77
2022/07/23 03:01:10;;;;;;;1999.90;999.90;;;;;;;19.25;91.81;99250.28;8066576;29;20057;-77
2022/07/23 03:05:12;;;;;;;1999.90;999.90;;;;;;;19.21;92.32;99246.09;8080447;29;20036;-78
2022/07/23 03:09:14;;;;;;;1999.90;999.90;;;;;;;19.14;92.28;99247.25;8065098;29;20094;-78
2022/07/23 03:13:16;;;;;;;1999.90;999.90;;;;;;;19.05;92.80;99238.88;8082959;29;20523;-78
2022/07/23 03:17:17;;;;;;;1999.90;999.90;;;;;;;19.00;93.28;99237.28;8065071;29;20080;-78
2022/07/23 03:21:19;;;;;;;1999.90;999.90;;;;;;;18.96;93.56;99240.97;8087659;29;20040;-77
2022/07/23 03:25:21;;;;;;;1999.90;999.90;;;;;;;19.03;93.73;99238.97;8090504;29;20185;-78
2022/07/23 03:29:22;;;;;;;1999.90;999.90;;;;;;;18.98;93.74;99254.91;8088574;29;20104;-77
2022/07/23 03:33:24;;;;;;;1999.90;999.90;;;;;;;18.92;94.03;99251.69;8088043;29;20493;-77
2022/07/23 03:37:25;;;;;;;1999.90;999.90;;;;;;;18.82;94.53;99259.06;8082503;29;20092;-77
2022/07/23 03:41:27;;;;;;;1999.90;999.90;;;;;;;18.76;94.75;99261.97;8068004;29;20087;-77
2022/07/23 03:45:29;;;;;;;1999.90;999.90;;;;;;;18.70;95.21;99268.34;8075745;29;20061;-78
2022/07/23 03:49:31;;;;;;;1999.90;999.90;;;;;;;18.70;95.38;99265.69;8063223;29;20713;-78
2022/07/23 03:53:32;;;;;;;1999.90;999.90;;;;;;;18.67;94.66;99270.19;8065721;29;20595;-77
2022/07/23 03:57:34;;;;;;;1999.90;999.90;;;;;;;18.57;95.31;99272.31;8060468;29;20049;-77
2022/07/23 04:01:35;;;;;;;1999.90;999.90;;;;;;;18.60;95.05;99276.59;8063506;29;20148;-77
2022/07/23 04:05:38;;;;;;;1999.90;999.90;;;;;;;18.54;95.45;99277.69;8079999;29;20061;-77
2022/07/23 04:09:40;;;;;;;1999.90;999.90;;;;;;;18.50;94.70;99289.25;8078729;29;20056;-77
2022/07/23 04:13:46;;;;;;;1999.90;999.90;;;;;;;18.45;95.42;99295.59;8059684;29;20060;-77
2022/07/23 04:17:48;;;;;;;1999.90;999.90;;;;;;;18.49;95.59;99277.03;8085990;29;20539;-76
2022/07/23 04:21:49;;;;;;;1999.90;999.90;;;;;;;18.54;95.34;99285.59;8080196;29;20077;-76
2022/07/23 04:25:51;;;;;;;1999.90;999.90;;;;;;;18.51;95.03;99298.84;8069512;29;20563;-77
2022/07/23 04:29:52;;;;;;;1999.90;999.90;;;;;;;18.54;94.43;99309.25;8087160;29;20044;-77
2022/07/23 04:33:54;;;;;;;1999.90;999.90;;;;;;;18.53;94.37;99325.94;8066217;29;20057;-77
2022/07/23 04:37:55;;;;;;;1999.90;999.90;;;;;;;18.42;94.68;99323.72;8076267;29;20068;-77
2022/07/23 04:41:57;;;;;;;1999.90;999.90;;;;;;;18.36;95.82;99339.72;8059975;29;20150;-78
2022/07/23 04:45:58;;;;;;;1999.90;999.90;;;;;;;18.45;96.05;99338.50;8052428;29;20416;-77
2022/07/23 04:50:00;;;;;;;1999.90;999.90;;;;;;;18.53;96.07;99349.63;8086843;29;20168;-77
2022/07/23 04:54:01;;;;;;;1999.90;999.90;;;;;;;18.60;96.08;99343.19;8091275;29;20319;-77
2022/07/23 04:58:02;;;;;;;1999.90;999.90;;;;;;;18.73;95.75;99348.91;8067927;29;20475;-76
2022/07/23 05:02:04;;;;;;;1999.90;999.90;;;;;;;18.72;95.44;99362.97;8068566;29;20059;-77
2022/07/23 05:06:06;;;;;;;1999.90;999.90;;;;;;;18.69;96.12;99363.94;8061480;29;20073;-77
2022/07/23 05:10:08;;;;;;;1999.90;999.90;;;;;;;18.79;95.84;99366.22;8062692;29;20053;-76
2022/07/23 05:14:12;;;;;;;1999.90;999.90;;;;;;;18.84;96.24;99358.97;8077312;29;20438;-77
2022/07/23 05:18:13;;;;;;;1999.90;999.90;;;;;;;18.93;96.08;99358.66;8079383;29;20140;-77
2022/07/23 05:22:15;;;;;;;1999.90;999.90;;;;;;;19.07;95.17;99358.97;8071413;29;20140;-77
2022/07/23 05:26:19;;;;;;;1999.90;999.90;;;;;;;19.13;94.92;99368.38;8059445;29;20421;-78
2022/07/23 05:30:31;;;;;;;1999.90;999.90;;;;;;;19.10;94.74;99379.91;8066515;29;20049;-77
2022/07/23 05:34:34;;;;;;;1999.90;999.90;;;;;;;19.17;94.40;99377.88;8091794;29;20061;-78
2022/07/23 05:38:39;;;;;;;1999.90;999.90;;;;;;;19.28;93.74;99378.31;8089549;29;20149;-78
2022/07/23 05:42:44;;;;;;;1999.90;999.90;;;;;;;19.40;93.32;99380.47;8080223;29;20061;-78
2022/07/23 05:46:48;;;;;;;1999.90;999.90;;;;;;;19.55;93.22;99386.88;8062699;29;20045;-78
2022/07/23 05:50:54;;;;;;;1999.90;999.90;;;;;;;19.79;92.15;99390.31;8070805;29;20061;-78
2022/07/23 05:54:58;;;;;;;1999.90;999.90;;;;;;;20.01;90.59;99383.19;8064675;29;20045;-78
2022/07/23 05:59:14;;;;;;;1999.90;999.90;;;;;;;20.21;88.61;99393.72;8061924;29;20052;-78
2022/07/23 06:03:16;;;;;;;1999.90;999.90;;;;;;;20.60;87.69;99402.59;8073537;29;20108;-78
2022/07/23 06:07:21;;;;;;;1999.90;999.90;;;;;;;21.17;85.75;99403.47;8071875;29;20121;-78
2022/07/23 06:11:26;;;;;;;1999.90;999.90;;;;;;;21.42;84.30;99398.78;8061591;29;20053;-78
2022/07/23 06:15:35;;;;;;;1999.90;999.90;;;;;;;21.39;82.28;99402.44;8058647;29;20136;-78
2022/07/23 06:19:42;;;;;;;1999.90;999.90;;;;;;;21.77;80.40;99407.63;8081565;29;20057;-80
2022/07/23 06:24:00;;;;;;;1999.90;999.90;;;;;;;22.03;78.20;99408.94;8079638;29;20053;-80
2022/07/23 06:28:09;;;;;;;1999.90;999.90;;;;;;;22.79;74.45;99406.72;8064372;29;20128;-80
2022/07/23 06:32:17;;;;;;;1999.90;999.90;;;;;;;22.64;73.58;99416.38;8063342;29;20072;-79
2022/07/23 06:36:35;;;;;;;1999.90;999.90;;;;;;;22.44;74.67;99409.50;8062084;29;20061;-81
2022/07/23 06:40:39;;;;;;;1999.90;999.90;;;;;;;22.33;75.67;99416.25;8080215;29;20041;-81
2022/07/23 06:44:49;;;;;;;1999.90;999.90;;;;;;;22.15;77.61;99407.50;8093157;29;20565;-81
2022/07/23 06:49:00;;;;;;;1999.90;999.90;;;;;;;22.51;77.80;99423.25;8086711;29;20057;-81
2022/07/23 06:53:10;;;;;;;1999.90;999.90;;;;;;;22.54;76.17;99425.72;8101387;29;20371;-82
2022/07/23 06:57:38;;;;;;;1999.90;999.90;;;;;;;22.99;71.30;99425.09;8100238;29;20055;-80
2022/07/23 07:01:55;;;;;;;1999.90;999.90;;;;;;;23.10;68.95;99430.63;8081902;29;20161;-81
2022/07/23 07:06:40;;;;;;;1999.90;999.90;;;;;;;23.10;69.01;99435.06;8082124;29;20041;-82
2022/07/23 07:10:52;;;;;;;1999.90;999.90;;;;;;;23.08;69.85;99436.97;8080348;29;20067;-82
2022/07/23 07:15:11;;;;;;;1999.90;999.90;;;;;;;23.19;68.97;99446.03;8101371;29;20056;-82
2022/07/23 07:20:16;;;;;;;1999.90;999.90;;;;;;;23.32;67.37;99454.13;8089595;29;20073;-81
2022/07/23 07:24:59;;;;;;;1999.90;999.90;;;;;;;23.56;67.11;99445.78;8082190;29;20067;-82
2022/07/23 07:29:50;;;;;;;1999.90;999.90;;;;;;;23.50;66.84;99458.41;8120317;29;20048;-81
2022/07/23 07:34:54;;;;;;;1999.90;999.90;;;;;;;24.23;66.96;99457.78;8095775;29;20111;-82
2022/07/23 08:02:53;;;;;;;1999.90;999.90;;;;;;;26.11;55.70;99474.28;8078588;29;21163;-81
2022/07/23 08:06:59;;;;;;;1999.90;999.90;;;;;;;26.16;55.25;99474.81;8103665;29;20470;-82
2022/07/23 08:11:29;;;;;;;1999.90;999.90;;;;;;;26.31;55.17;99480.91;8123540;29;20123;-81
2022/07/23 08:16:42;;;;;;;1999.90;999.90;;;;;;;26.60;54.39;99470.13;8097015;29;20052;-82
2022/07/23 08:21:09;;;;;;;1999.90;999.90;;;;;;;26.75;53.79;99475.25;8117087;29;20053;-82
2022/07/23 08:25:25;;;;;;;1999.90;999.90;;;;;;;27.08;54.59;99456.03;8107605;29;20053;-82
2022/07/23 08:29:49;;;;;;;1999.90;999.90;;;;;;;27.43;53.31;99465.97;8098952;29;20057;-82
2022/07/23 08:33:52;;;;;;;1999.90;999.90;;;;;;;27.33;51.99;99475.63;8130687;29;20062;-82
2022/07/23 08:37:59;;;;;;;1999.90;999.90;;;;;;;27.45;53.32;99472.03;8106697;29;20136;-81
2022/07/23 08:42:03;;;;;;;1999.90;999.90;;;;;;;27.65;52.86;99476.84;8105927;29;20066;-81
2022/07/23 08:46:05;;;;;;;1999.90;999.90;;;;;;;27.55;50.60;99477.56;8116278;29;20113;-81
2022/07/23 08:50:18;;;;;;;1999.90;999.90;;;;;;;27.40;49.75;99472.38;8115334;29;20048;-81
2022/07/23 08:54:35;;;;;;;1999.90;999.90;;;;;;;27.72;50.24;99471.88;8110303;29;20067;-82
2022/07/23 08:58:46;;;;;;;1999.90;999.90;;;;;;;27.88;50.27;99467.13;8109813;29;20048;-81
2022/07/23 09:02:51;;;;;;;1999.90;999.90;;;;;;;27.96;47.97;99463.88;8104140;29;20680;-82
2022/07/23 09:06:57;;;;;;;1999.90;999.90;;;;;;;27.75;47.94;99462.78;8099580;29;20052;-81
2022/07/23 09:11:04;;;;;;;1999.90;999.90;;;;;;;27.98;48.57;99464.59;8114779;29;20080;-82
2022/07/23 09:25:02;;;;;;;1999.90;999.90;;;;;;;28.47;47.61;99466.25;7782001;27;20122;-81
2022/07/23 09:29:54;;;;;;;1999.90;999.90;;;;;;;28.68;46.60;99469.06;8028338;29;20046;-81
2022/07/23 09:34:38;;;;;;;1999.90;999.90;;;;;;;28.50;45.19;99472.19;8069041;29;20056;-81
2022/07/23 09:38:51;;;;;;;1999.90;999.90;;;;;;;28.65;45.86;99462.16;8067489;29;20049;-81
2022/07/23 09:43:08;;;;;;;1999.90;999.90;;;;;;;28.47;44.60;99461.75;8048470;29;20060;-81
2022/07/23 09:47:22;;;;;;;1999.90;999.90;;;;;;;28.63;45.86;99466.75;8067768;29;20054;-81
2022/07/23 09:51:36;;;;;;;1999.90;999.90;;;;;;;28.73;45.72;99472.25;8053245;29;20056;-81
2022/07/23 09:55:39;;;;;;;1999.90;999.90;;;;;;;28.56;44.58;99470.91;8052698;29;20045;-81
2022/07/23 09:59:47;;;;;;;1999.90;999.90;;;;;;;28.85;45.45;99473.94;8045905;29;20057;-81
2022/07/23 10:03:49;;;;;;;1999.90;999.90;;;;;;;29.10;44.87;99480.94;8051069;29;20404;-80
2022/07/23 10:07:52;;;;;;;1999.90;999.90;;;;;;;28.84;42.51;99486.47;8051490;29;20467;-81
2022/07/23 10:12:01;;;;;;;1999.90;999.90;;;;;;;28.40;43.47;99486.41;8053053;29;20060;-80
2022/07/23 10:16:08;;;;;;;1999.90;999.90;;;;;;;27.93;45.39;99494.31;8040592;29;20132;-81
2022/07/23 10:20:09;;;;;;;1999.90;999.90;;;;;;;27.83;44.63;99479.97;8039619;29;21137;-81
2022/07/23 10:24:23;;;;;;;1999.90;999.90;;;;;;;28.11;44.08;99481.41;8049465;29;20072;-81
2022/07/23 10:28:47;;;;;;;1999.90;999.90;;;;;;;28.04;44.73;99488.19;8037412;29;20045;-81
2022/07/23 10:33:18;;;;;;;1999.90;999.90;;;;;;;28.12;45.89;99484.91;8046818;29;20072;-81
2022/07/23 10:37:32;;;;;;;1999.90;999.90;;;;;;;28.55;44.64;99477.22;8038530;29;20089;-81
2022/07/23 10:41:39;;;;;;;1999.90;999.90;;;;;;;28.95;43.82;99483.00;8049388;29;20301;-81
2022/07/23 10:45:40;;;;;;;1999.90;999.90;;;;;;;28.98;43.05;99485.41;8063810;29;20053;-81
2022/07/23 10:49:42;;;;;;;1999.90;999.90;;;;;;;29.13;42.53;99478.00;8043451;29;20152;-80
2022/07/23 10:53:51;;;;;;;1999.90;999.90;;;;;;;29.22;41.23;99481.75;8061002;29;20056;-81
2022/07/23 10:57:53;;;;;;;1999.90;999.90;;;;;;;29.56;42.73;99475.41;8030714;29;20046;-81
2022/07/23 11:02:22;;;;;;;1999.90;999.90;;;;;;;29.49;39.91;99479.59;8019093;29;20445;-81
2022/07/23 11:06:24;;;;;;;1999.90;999.90;;;;;;;29.74;39.77;99476.59;8047544;29;20528;-81
2022/07/23 11:10:36;;;;;;;1999.90;999.90;;;;;;;30.04;40.01;99477.75;8035336;29;20080;-81
2022/07/23 11:14:59;;;;;;;1999.90;999.90;;;;;;;30.03;37.32;99476.84;8066568;29;20388;-81
2022/07/23 11:19:05;;;;;;;1999.90;999.90;;;;;;;30.28;37.41;99472.13;8064633;29;20065;-81
2022/07/23 11:23:06;;;;;;;1999.90;999.90;;;;;;;30.07;37.63;99481.00;8043505;29;20058;-81
2022/07/23 11:27:08;;;;;;;1999.90;999.90;;;;;;;30.18;37.87;99482.81;8069470;29;20045;-81
2022/07/23 11:31:17;;;;;;;1999.90;999.90;;;;;;;30.33;39.04;99476.13;8044564;29;20147;-80
2022/07/23 11:35:26;;;;;;;1999.90;999.90;;;;;;;30.24;37.12;99481.41;8029377;29;20513;-81
2022/07/23 11:39:29;;;;;;;1999.90;999.90;;;;;;;30.32;38.65;99476.25;8053100;29;20060;-80
2022/07/23 11:43:30;;;;;;;1999.90;999.90;;;;;;;30.17;37.74;99472.22;8038089;29;20061;-81
2022/07/23 11:47:32;;;;;;;1999.90;999.90;;;;;;;30.14;38.33;99470.63;8026333;29;20449;-80
2022/07/23 11:51:33;;;;;;;1999.90;999.90;;;;;;;29.95;39.24;99468.59;8032172;29;20140;-81
2022/07/23 11:55:35;;;;;;;1999.90;999.90;;;;;;;30.02;38.25;99459.09;8028162;29;20066;-81
2022/07/23 11:59:38;;;;;;;1999.90;999.90;;;;;;;30.31;38.39;99464.69;8040084;29;20072;-80
2022/07/23 12:03:51;;;;;;;1999.90;999.90;;;;;;;30.62;38.66;99452.22;8029769;29;20421;-80
2022/07/23 12:07:56;;;;;;;1999.90;999.90;;;;;;;30.84;37.08;99455.72;8041932;29;20063;-80
2022/07/23 12:12:01;;;;;;;1999.90;999.90;;;;;;;30.73;37.40;99453.16;8030714;29;20054;-79
2022/07/23 12:16:04;;;;;;;1999.90;999.90;;;;;;;30.54;37.12;99462.75;8025755;29;20061;-81
2022/07/23 12:20:09;;;;;;;1999.90;999.90;;;;;;;30.04;37.53;99465.19;8026049;29;20053;-79
2022/07/23 12:24:11;;;;;;;1999.90;999.90;;;;;;;29.87;37.72;99463.03;8027102;29;20095;-79
2022/07/23 12:28:17;;;;;;;1999.90;999.90;;;;;;;29.65;38.21;99452.41;8051492;29;20161;-79
2022/07/23 12:32:22;;;;;;;1999.90;999.90;;;;;;;29.42;39.35;99454.25;8026061;29;20164;-80
2022/07/23 12:36:39;;;;;;;1999.90;999.90;;;;;;;29.46;39.93;99453.94;8049695;29;20054;-79
2022/07/23 12:40:48;;;;;;;1999.90;999.90;;;;;;;29.93;39.06;99454.50;8023238;29;20053;-79
2022/07/23 12:45:13;;;;;;;1999.90;999.90;;;;;;;30.20;37.73;99454.06;8057465;29;20152;-80
2022/07/23 12:49:25;;;;;;;1999.90;999.90;;;;;;;29.91;37.41;99458.28;8029335;29;20045;-79
2022/07/23 12:53:32;;;;;;;1999.90;999.90;;;;;;;29.56;37.96;99464.72;8032772;29;20061;-81
2022/07/23 12:57:46;;;;;;;1999.90;999.90;;;;;;;29.65;38.21;99463.13;8043046;29;20057;-80
2022/07/23 13:01:57;;;;;;;1999.90;999.90;;;;;;;29.95;37.71;99454.34;8049143;29;20064;-78
2022/07/23 13:06:00;;;;;;;1999.90;999.90;;;;;;;30.27;36.40;99467.75;8041436;29;20050;-80
2022/07/23 13:10:04;;;;;;;1999.90;999.90;;;;;;;30.47;35.49;99455.34;8049509;29;20072;-80
2022/07/23 13:14:06;;;;;;;1999.90;999.90;;;;;;;30.58;35.13;99458.81;8041192;29;20125;-79
2022/07/23 13:18:10;;;;;;;1999.90;999.90;;;;;;;30.81;35.80;99464.88;8035746;29;20173;-79
2022/07/23 13:22:11;;;;;;;1999.90;999.90;;;;;;;30.97;35.25;99461.72;8049169;29;20065;-79
2022/07/23 13:26:14;;;;;;;1999.90;999.90;;;;;;;30.84;34.73;99463.75;8034390;29;20451;-79
2022/07/23 13:30:16;;;;;;;1999.90;999.90;;;;;;;30.58;35.33;99461.50;8035041;29;20116;-78
2022/07/23 13:34:19;;;;;;;1999.90;999.90;;;;;;;30.39;34.49;99458.69;8034792;29;20094;-80
2022/07/23 13:38:22;;;;;;;1999.90;999.90;;;;;;;30.59;35.42;99465.03;8038937;29;20105;-80
2022/07/23 13:42:23;;;;;;;1999.90;999.90;;;;;;;30.87;34.54;99450.94;8021485;29;20069;-80
2022/07/23 13:46:24;;;;;;;1999.90;999.90;;;;;;;31.01;34.68;99452.41;8038375;29;20069;-81
2022/07/23 13:50:27;;;;;;;1999.90;999.90;;;;;;;30.85;34.91;99460.09;8035997;29;20049;-80
2022/07/23 13:54:34;;;;;;;1999.90;999.90;;;;;;;30.97;34.83;99459.88;8023813;29;20117;-80
2022/07/23 13:58:36;;;;;;;1999.90;999.90;;;;;;;31.17;35.67;99465.31;8022258;29;20061;-81
2022/07/23 14:02:39;;;;;;;1999.90;999.90;;;;;;;31.41;34.71;99447.06;8043326;29;20086;-81
2022/07/23 14:06:42;;;;;;;1999.90;999.90;;;;;;;31.56;34.61;99461.78;8054984;29;20053;-81
2022/07/23 14:10:44;;;;;;;1999.90;999.90;;;;;;;31.77;34.37;99445.59;8038002;29;20092;-80
2022/07/23 14:14:45;;;;;;;1999.90;999.90;;;;;;;31.31;33.37;99456.94;8041256;29;20701;-80
2022/07/23 14:18:47;;;;;;;1999.90;999.90;;;;;;;30.77;34.22;99454.56;8026965;29;20048;-81
2022/07/23 14:22:49;;;;;;;1999.90;999.90;;;;;;;30.19;35.38;99457.72;8050271;29;20095;-80
2022/07/23 14:26:51;;;;;;;1999.90;999.90;;;;;;;29.88;36.28;99458.53;8056888;29;20049;-80
2022/07/23 14:30:53;;;;;;;1999.90;999.90;;;;;;;30.19;36.69;99455.03;8051889;29;20053;-81
2022/07/23 14:34:54;;;;;;;1999.90;999.90;;;;;;;30.27;36.30;99460.56;8042697;29;20061;-81
2022/07/23 14:39:00;;;;;;;1999.90;999.90;;;;;;;30.25;36.09;99448.28;8035361;29;20057;-80
2022/07/23 14:45:45;;;;;;;1999.90;999.90;;;;;;;30.72;35.93;99440.72;8573493;27;20138;-80
2022/07/23 14:49:49;;;;;;;1999.90;999.90;;;;;;;31.05;34.89;99435.06;8495658;27;20046;-80
2022/07/23 14:53:53;;;;;;;1999.90;999.90;;;;;;;31.15;34.65;99433.25;8503126;27;20051;-80
2022/07/23 15:02:23;;;;;;;1999.90;999.90;;;;;;;30.84;34.62;99443.16;8277906;28;20089;-79
2022/07/23 15:06:25;;;;;;;1999.90;999.90;;;;;;;30.81;34.80;99438.06;8282252;28;20053;-78
2022/07/23 15:10:27;;;;;;;1999.90;999.90;;;;;;;30.91;34.72;99424.72;8291817;28;20358;-80
2022/07/23 15:14:28;;;;;;;1999.90;999.90;;;;;;;30.91;35.06;99430.94;8305969;22;20452;-80
2022/07/23 15:18:35;;;;;;;1999.90;999.90;;;;;;;30.51;34.39;99428.13;8389192;28;20045;-80
2022/07/23 15:22:38;;;;;;;1999.90;999.90;;;;;;;30.47;35.03;99424.03;8352145;28;20640;-80
2022/07/23 15:26:39;;;;;;;1999.90;999.90;;;;;;;30.37;34.80;99423.16;8357290;28;20175;-80
2022/07/23 15:30:41;;;;;;;1999.90;999.90;;;;;;;30.23;34.73;99434.19;8375144;28;20044;-80
2022/07/23 15:34:42;;;;;;;1999.90;999.90;;;;;;;30.02;34.56;99435.00;8387213;28;20075;-80
2022/07/23 15:38:45;;;;;;;1999.90;999.90;;;;;;;29.84;35.53;99433.00;8375763;28;20053;-80
2022/07/23 15:42:55;;;;;;;1999.90;999.90;;;;;;;29.58;34.76;99433.31;8383256;28;20144;-80
2022/07/23 15:47:13;;;;;;;1999.90;999.90;;;;;;;29.36;35.54;99428.84;8393537;28;20048;-80
2022/07/23 15:51:28;;;;;;;1999.90;999.90;;;;;;;29.53;35.94;99434.69;8376745;28;20456;-80
2022/07/23 15:55:36;;;;;;;1999.90;999.90;;;;;;;29.95;35.43;99422.22;8379070;28;20051;-80
2022/07/23 15:59:42;;;;;;;1999.90;999.90;;;;;;;30.36;36.30;99430.34;8341131;28;20102;-80
2022/07/23 16:03:48;;;;;;;1999.90;999.90;;;;;;;30.71;34.52;99418.44;8365716;28;20052;-81
2022/07/23 16:08:04;;;;;;;1999.90;999.90;;;;;;;30.64;33.20;99409.19;8371929;28;20041;-81
2022/07/23 16:12:19;;;;;;;1999.90;999.90;;;;;;;30.87;34.20;99416.06;8353213;28;20048;-82
2022/07/23 16:16:24;;;;;;;1999.90;999.90;;;;;;;31.11;33.67;99407.69;8356699;28;20135;-81
2022/07/23 16:20:35;;;;;;;1999.90;999.90;;;;;;;30.78;32.22;99414.22;8339508;28;20132;-81
2022/07/23 16:24:57;;;;;;;1999.90;999.90;;;;;;;30.58;31.88;99413.25;8364805;28;20079;-81
2022/07/23 16:29:40;;;;;;;1999.90;999.90;;;;;;;30.20;34.12;99405.81;8359669;28;20045;-81
2022/07/23 16:34:08;;;;;;;1999.90;999.90;;;;;;;29.71;34.68;99417.09;8348097;28;20045;-81
2022/07/23 16:38:10;;;;;;;1999.90;999.90;;;;;;;29.39;34.66;99417.91;8358572;28;20608;-81
2022/07/23 16:42:12;;;;;;;1999.90;999.90;;;;;;;29.16;35.16;99403.72;8365041;28;20056;-81
2022/07/23 16:46:18;;;;;;;1999.90;999.90;;;;;;;29.01;36.22;99420.16;8352495;28;20531;-82
2022/07/23 16:59:46;;;;;;;1999.90;999.90;;;;;;;28.71;37.97;99426.06;8946377;23;20137;-81
2022/07/23 17:04:03;;;;;;;1999.90;999.90;;;;;;;28.59;38.06;99426.06;8272931;28;20035;-81
2022/07/23 17:08:51;;;;;;;1999.90;999.90;;;;;;;28.51;37.92;99419.63;8287917;28;20703;-82
2022/07/23 17:13:11;;;;;;;1999.90;999.90;;;;;;;28.43;37.63;99422.03;8271937;28;20459;-82
2022/07/23 17:17:48;;;;;;;1999.90;999.90;;;;;;;28.39;37.48;99415.25;8268128;28;20042;-82
2022/07/23 17:22:42;;;;;;;;;;;;;;;28.33;38.08;99421.03;8272601;28;20112;-82
2022/07/23 17:26:59;;;;;;;1999.90;999.90;;;;;;;28.27;38.24;99420.56;8264760;28;19979;-82
2022/07/23 17:31:10;;;;;;;1999.90;999.90;;;;;;;28.26;38.45;99418.84;8278130;28;20137;-82
2022/07/23 17:35:11;;;;;;;1999.90;999.90;;;;;;;28.20;38.05;99421.97;8275704;28;20049;-82
2022/07/23 17:39:27;;;;;;;1999.90;999.90;;;;;;;28.20;38.79;99418.44;8261898;28;20097;-82
2022/07/23 17:43:48;;;;;;;1999.90;999.90;;;;;;;28.15;38.25;99417.94;8255228;28;20095;-82
2022/07/23 17:47:53;;;;;;;1999.90;999.90;;;;;;;28.03;38.31;99421.56;8255191;28;20124;-81
2022/07/23 17:52:10;;;;;;;1999.90;999.90;;;;;;;27.92;38.69;99415.19;8290259;28;20046;-81
2022/07/23 17:56:19;;;;;;;1999.90;999.90;;;;;;;27.84;38.43;99425.63;8291903;28;20537;-82
2022/07/23 18:00:35;;;;;;;1999.90;999.90;;;;;;;27.65;37.72;99418.13;8269866;28;20055;-82
2022/07/23 18:05:50;;;;;;;1999.90;999.90;;;;;;;27.45;38.66;99428.50;8268586;28;20368;-82
2022/07/23 18:11:03;;;;;;;1999.90;999.90;;;;;;;27.21;40.30;99431.16;8261302;28;20042;-82
2022/07/23 18:15:19;;;;;;;1999.90;999.90;;;;;;;27.03;41.67;99431.53;8628406;23;20295;-82
2022/07/23 18:19:40;;;;;;;1999.90;999.90;;;;;;;26.84;41.66;99430.25;8254145;28;20046;-81
2022/07/23 18:23:46;;;;;;;1999.90;999.90;;;;;;;26.67;43.22;99437.59;8292719;28;20044;-82
2022/07/23 18:28:00;;;;;;;1999.90;999.90;;;;;;;26.46;44.36;99433.78;8272067;28;20047;-81
2022/07/23 18:32:26;;;;;;;1999.90;999.90;;;;;;;26.13;45.85;99444.88;8253793;28;20527;-82
2022/07/23 18:36:38;;;;;;;1999.90;999.90;;;;;;;25.85;47.36;99444.09;8283729;28;20034;-81
2022/07/23 18:40:46;;;;;;;1999.90;999.90;;;;;;;25.64;48.15;99441.94;8259620;28;20042;-81
2022/07/23 18:44:57;;;;;;;1999.90;999.90;;;;;;;25.33;49.26;99454.56;8272241;28;20585;-82
2022/07/23 18:49:11;;;;;;;1999.90;999.90;;;;;;;25.04;50.57;99459.06;8322648;28;20033;-81
2022/07/23 18:53:45;;;;;;;1999.90;999.90;;;;;;;24.70;51.57;99455.81;8298804;28;21097;-81
2022/07/23 18:58:03;;;;;;;1999.90;999.90;;;;;;;24.58;50.56;99461.00;8324604;28;20046;-81
2022/07/23 19:02:17;;;;;;;1999.90;999.90;;;;;;;24.45;51.31;99462.72;8299016;28;20392;-82
2022/07/23 19:06:22;;;;;;;1999.90;999.90;;;;;;;24.26;51.45;99470.91;8314000;28;20052;-81
2022/07/23 19:10:24;;;;;;;1999.90;999.90;;;;;;;24.06;51.87;99472.91;8311587;28;20048;-81
2022/07/23 19:14:30;;;;;;;1999.90;999.90;;;;;;;23.93;52.06;99479.88;8331559;28;20144;-81
2022/07/23 19:18:33;;;;;;;1999.90;999.90;;;;;;;23.73;52.86;99475.72;8321473;28;20684;-81